Time;durP1;ratioP1;P1;durP2;ratioP2;P2;SDS_P1;SDS_P2;PMS_P1;PMS_P2;Temp;Humidity;BMP_temperature;BMP_pressure;BME280_temperature;BME280_humidity;BME280_pressure;Samples;Min_cycle;Max_cycle;Signal;HPM_P1;HPM_P2
2020/12/15 00:00:38;;;;;;;66.07;46.20;;;;;;;;;;6255221;28;20102;-68
2020/12/15 00:03:40;;;;;;;63.17;46.13;;;;;;;;;;6254812;28;20072;-68
2020/12/15 00:06:41;;;;;;;64.65;47.05;;;;;;;;;;6256158;28;20094;-70
2020/12/15 00:09:42;;;;;;;64.95;46.85;;;;;;;;;;6246779;28;20135;-69
2020/12/15 00:12:44;;;;;;;67.40;47.47;;;;;;;;;;6254376;28;20056;-70
2020/12/15 00:15:45;;;;;;;68.03;48.85;;;;;;;;;;6252716;28;20643;-71
2020/12/15 00:18:47;;;;;;;71.20;50.30;;;;;;;;;;6255008;28;20079;-69
2020/12/15 00:21:48;;;;;;;68.35;49.38;;;;;;;;;;6244344;28;20045;-69
2020/12/15 00:24:49;;;;;;;70.28;49.88;;;;;;;;;;6255700;28;20100;-68
2020/12/15 00:27:50;;;;;;;66.95;49.38;;;;;;;;;;6260908;28;20061;-68
2020/12/15 00:30:52;;;;;;;70.28;48.20;;;;;;;;;;6268558;28;20083;-68
2020/12/15 00:33:54;;;;;;;64.15;47.33;;;;;;;;;;6283186;28;20056;-69
2020/12/15 00:36:57;;;;;;;69.40;47.97;;;;;;;;;;6288463;28;20139;-70
2020/12/15 00:39:58;;;;;;;69.10;48.47;;;;;;;;;;6283196;28;20125;-69
2020/12/15 00:42:59;;;;;;;65.95;48.00;;;;;;;;;;6279547;28;20097;-70
2020/12/15 00:46:00;;;;;;;70.72;49.13;;;;;;;;;;6279270;28;20048;-71
2020/12/15 00:49:02;;;;;;;67.10;46.95;;;;;;;;;;6282995;28;20798;-68
2020/12/15 00:52:04;;;;;;;64.18;47.15;;;;;;;;;;6277758;28;20135;-69
2020/12/15 00:55:05;;;;;;;65.78;47.40;;;;;;;;;;6275328;28;20049;-69
2020/12/15 00:58:06;;;;;;;69.72;47.67;;;;;;;;;;6279846;28;20053;-70
2020/12/15 01:01:08;;;;;;;74.43;51.47;;;;;;;;;;6278411;28;20052;-70
2020/12/15 01:04:10;;;;;;;72.57;50.45;;;;;;;;;;6275034;28;20163;-69
2020/12/15 01:07:11;;;;;;;75.50;52.80;;;;;;;;;;6277592;28;20047;-68
2020/12/15 01:10:12;;;;;;;74.53;51.67;;;;;;;;;;6282228;28;20049;-68
2020/12/15 01:13:14;;;;;;;67.15;47.92;;;;;;;;;;6276302;28;20592;-71
2020/12/15 01:16:15;;;;;;;64.00;46.58;;;;;;;;;;6243910;28;20188;-68
2020/12/15 01:19:17;;;;;;;62.42;45.35;;;;;;;;;;6263278;28;20051;-69
2020/12/15 01:22:18;;;;;;;62.13;45.33;;;;;;;;;;6256665;28;20064;-70
2020/12/15 01:25:19;;;;;;;65.10;45.35;;;;;;;;;;6252245;28;20045;-67
2020/12/15 01:28:21;;;;;;;66.82;46.25;;;;;;;;;;6242138;28;20078;-69
2020/12/15 01:31:25;;;;;;;69.90;49.28;;;;;;;;;;6255569;28;20128;-68
2020/12/15 01:34:27;;;;;;;67.63;48.70;;;;;;;;;;6257680;28;20037;-67
2020/12/15 01:37:28;;;;;;;71.90;49.78;;;;;;;;;;6263612;28;20127;-67
2020/12/15 01:40:29;;;;;;;71.95;50.33;;;;;;;;;;6253218;28;20033;-70
2020/12/15 01:43:31;;;;;;;68.47;49.20;;;;;;;;;;6263050;28;20120;-69
2020/12/15 01:46:33;;;;;;;70.18;48.58;;;;;;;;;;6271590;28;20143;-68
2020/12/15 01:49:35;;;;;;;67.30;47.60;;;;;;;;;;6257499;28;20048;-69
2020/12/15 01:52:36;;;;;;;65.55;46.45;;;;;;;;;;6262806;28;20091;-69
2020/12/15 01:55:37;;;;;;;67.90;46.53;;;;;;;;;;6251529;28;20650;-68
2020/12/15 01:58:40;;;;;;;66.80;46.50;;;;;;;;;;6266736;28;20411;-69
2020/12/15 02:01:44;;;;;;;62.42;46.60;;;;;;;;;;6268006;28;20059;-69
2020/12/15 02:04:48;;;;;;;63.45;44.97;;;;;;;;;;6256450;28;20184;-69
2020/12/15 02:07:49;;;;;;;64.28;46.33;;;;;;;;;;6259279;28;20037;-68
2020/12/15 02:10:50;;;;;;;68.22;48.97;;;;;;;;;;6267891;28;20053;-69
2020/12/15 02:13:51;;;;;;;71.43;45.45;;;;;;;;;;6275746;28;20048;-68
2020/12/15 02:16:53;;;;;;;64.45;46.55;;;;;;;;;;6270767;28;20132;-69
2020/12/15 02:20:01;;;;;;;66.20;47.15;;;;;;;;;;6284797;28;20059;-69
2020/12/15 02:23:03;;;;;;;63.20;45.42;;;;;;;;;;6286804;28;20131;-68
2020/12/15 02:26:06;;;;;;;65.05;45.00;;;;;;;;;;6279774;28;20053;-71
2020/12/15 02:29:07;;;;;;;57.08;43.53;;;;;;;;;;6286766;28;20052;-68
2020/12/15 02:32:08;;;;;;;62.25;45.15;;;;;;;;;;6282477;28;20473;-70
2020/12/15 02:35:09;;;;;;;63.97;45.20;;;;;;;;;;6281776;28;20178;-69
2020/12/15 02:38:11;;;;;;;57.85;42.05;;;;;;;;;;6280563;28;20167;-68
2020/12/15 02:41:12;;;;;;;62.25;44.70;;;;;;;;;;6283854;28;20553;-68
2020/12/15 02:44:13;;;;;;;63.40;43.63;;;;;;;;;;6284042;28;20549;-68
2020/12/15 02:47:14;;;;;;;58.85;42.92;;;;;;;;;;6281648;28;20048;-68
2020/12/15 02:50:18;;;;;;;61.08;45.83;;;;;;;;;;6279795;28;20060;-68
2020/12/15 02:53:20;;;;;;;62.72;43.28;;;;;;;;;;6287041;28;20524;-68
2020/12/15 02:56:23;;;;;;;62.80;44.40;;;;;;;;;;6284159;28;20453;-69
2020/12/15 02:59:24;;;;;;;59.70;43.25;;;;;;;;;;6287747;28;20437;-70
2020/12/15 03:02:25;;;;;;;63.40;45.13;;;;;;;;;;6289695;28;20175;-70
2020/12/15 03:05:26;;;;;;;64.13;45.55;;;;;;;;;;6283859;28;20131;-67
2020/12/15 03:08:28;;;;;;;65.72;45.83;;;;;;;;;;6282062;28;20551;-68
2020/12/15 03:11:29;;;;;;;63.00;43.50;;;;;;;;;;6279936;28;20048;-72
2020/12/15 03:14:30;;;;;;;62.47;43.67;;;;;;;;;;6283440;28;20089;-69
2020/12/15 03:17:31;;;;;;;59.00;42.92;;;;;;;;;;6283166;28;20095;-70
2020/12/15 03:20:32;;;;;;;59.33;43.63;;;;;;;;;;6285670;28;20052;-71
2020/12/15 03:23:34;;;;;;;60.53;44.50;;;;;;;;;;6289166;28;20044;-70
2020/12/15 03:26:35;;;;;;;63.03;45.90;;;;;;;;;;6273128;28;20075;-70
2020/12/15 03:29:36;;;;;;;63.05;46.92;;;;;;;;;;6277768;28;20060;-69
2020/12/15 03:32:37;;;;;;;63.10;46.33;;;;;;;;;;6292684;28;20045;-69
2020/12/15 03:35:38;;;;;;;64.00;46.38;;;;;;;;;;6289320;28;20121;-68
2020/12/15 03:38:40;;;;;;;72.18;47.95;;;;;;;;;;6282478;28;20049;-70
2020/12/15 03:41:41;;;;;;;72.50;51.75;;;;;;;;;;6283167;28;20104;-72
2020/12/15 03:44:44;;;;;;;72.72;51.55;;;;;;;;;;6285722;28;20734;-72
2020/12/15 03:47:45;;;;;;;71.63;50.58;;;;;;;;;;6283428;28;20056;-70
2020/12/15 03:50:46;;;;;;;78.80;54.38;;;;;;;;;;6282892;28;20052;-70
2020/12/15 03:53:48;;;;;;;76.18;52.65;;;;;;;;;;6282657;28;20563;-69
2020/12/15 03:56:49;;;;;;;76.88;52.58;;;;;;;;;;6281652;28;20044;-70
2020/12/15 03:59:50;;;;;;;75.18;52.60;;;;;;;;;;6277418;28;20135;-70
2020/12/15 04:02:51;;;;;;;77.65;55.20;;;;;;;;;;6256133;28;20040;-69
2020/12/15 04:05:52;;;;;;;81.60;55.63;;;;;;;;;;6256996;28;20059;-69
2020/12/15 04:08:54;;;;;;;77.60;54.47;;;;;;;;;;6263985;28;20053;-71
2020/12/15 04:11:55;;;;;;;80.38;55.33;;;;;;;;;;6260682;28;20090;-69
2020/12/15 04:14:56;;;;;;;84.07;57.30;;;;;;;;;;6257360;28;20628;-69
2020/12/15 04:17:57;;;;;;;84.15;57.95;;;;;;;;;;6255923;28;20625;-70
2020/12/15 04:20:58;;;;;;;80.70;55.33;;;;;;;;;;6256077;28;20098;-70
2020/12/15 04:24:00;;;;;;;84.82;57.00;;;;;;;;;;6256051;28;20141;-71
2020/12/15 04:27:01;;;;;;;88.18;58.10;;;;;;;;;;6254565;28;20053;-71
2020/12/15 04:30:03;;;;;;;81.70;59.55;;;;;;;;;;6266446;28;20842;-71
2020/12/15 04:33:04;;;;;;;86.63;58.63;;;;;;;;;;6257049;28;20123;-71
2020/12/15 04:36:05;;;;;;;91.57;62.58;;;;;;;;;;6259891;28;20128;-70
2020/12/15 04:39:07;;;;;;;87.40;60.20;;;;;;;;;;6257851;28;20051;-71
2020/12/15 04:42:08;;;;;;;89.85;60.20;;;;;;;;;;6256251;28;20624;-70
2020/12/15 04:45:09;;;;;;;90.78;62.40;;;;;;;;;;6257960;28;20043;-71
2020/12/15 04:48:12;;;;;;;85.65;58.72;;;;;;;;;;6258376;28;20086;-70
2020/12/15 04:51:14;;;;;;;83.70;58.05;;;;;;;;;;6249996;28;20060;-71
2020/12/15 04:54:17;;;;;;;84.63;56.70;;;;;;;;;;6241781;28;20097;-73
2020/12/15 04:57:22;;;;;;;87.00;57.05;;;;;;;;;;6265494;28;20052;-67
2020/12/15 05:00:23;;;;;;;87.18;60.53;;;;;;;;;;6255178;28;20049;-69
2020/12/15 05:03:31;;;;;;;88.60;61.00;;;;;;;;;;6258488;28;20128;-69
2020/12/15 05:06:32;;;;;;;89.80;58.28;;;;;;;;;;6276108;28;20043;-68
2020/12/15 05:09:35;;;;;;;91.10;58.83;;;;;;;;;;6259763;28;20067;-69
2020/12/15 05:12:36;;;;;;;88.53;59.00;;;;;;;;;;6259805;28;20053;-69
2020/12/15 05:15:37;;;;;;;86.13;58.60;;;;;;;;;;6256324;28;20140;-69
2020/12/15 05:18:38;;;;;;;85.32;59.03;;;;;;;;;;6261732;28;20565;-69
2020/12/15 05:21:39;;;;;;;84.72;57.95;;;;;;;;;;6258280;28;20053;-75
2020/12/15 05:24:46;;;;;;;90.45;58.55;;;;;;;;;;6257818;28;20660;-69
2020/12/15 05:27:47;;;;;;;93.07;59.53;;;;;;;;;;6257871;28;20064;-71
2020/12/15 05:30:59;;;;;;;83.38;58.40;;;;;;;;;;6257665;28;20071;-70
2020/12/15 05:34:02;;;;;;;84.40;58.15;;;;;;;;;;6259607;28;20075;-70
2020/12/15 05:37:04;;;;;;;85.38;57.35;;;;;;;;;;6258658;28;20032;-70
2020/12/15 05:40:05;;;;;;;89.65;60.33;;;;;;;;;;6262335;28;20628;-69
2020/12/15 05:43:07;;;;;;;89.18;59.15;;;;;;;;;;6264324;28;20128;-70
2020/12/15 05:46:09;;;;;;;91.72;60.97;;;;;;;;;;6260852;28;20049;-69
2020/12/15 05:49:10;;;;;;;89.72;60.70;;;;;;;;;;6255787;28;20048;-70
2020/12/15 05:52:11;;;;;;;94.65;62.50;;;;;;;;;;6268773;28;20041;-70
2020/12/15 05:55:13;;;;;;;83.53;58.70;;;;;;;;;;6261380;28;20057;-69
2020/12/15 05:58:15;;;;;;;85.90;59.50;;;;;;;;;;6266749;28;20040;-70
2020/12/15 06:01:16;;;;;;;84.95;58.85;;;;;;;;;;6270276;28;20158;-70
2020/12/15 06:04:17;;;;;;;82.78;57.42;;;;;;;;;;6255763;28;20049;-70
2020/12/15 06:07:20;;;;;;;84.18;56.10;;;;;;;;;;6259118;28;20041;-70
2020/12/15 06:10:23;;;;;;;85.80;57.83;;;;;;;;;;6254092;28;20051;-71
2020/12/15 06:13:24;;;;;;;85.38;57.90;;;;;;;;;;6271530;28;20065;-69
2020/12/15 06:16:25;;;;;;;81.38;55.70;;;;;;;;;;6266674;28;20575;-71
2020/12/15 06:19:26;;;;;;;82.20;55.38;;;;;;;;;;6266459;28;20053;-72
2020/12/15 06:22:27;;;;;;;80.55;55.90;;;;;;;;;;6258991;28;20059;-69
2020/12/15 06:25:31;;;;;;;82.30;56.00;;;;;;;;;;6261140;28;20556;-70
2020/12/15 06:28:33;;;;;;;86.03;55.23;;;;;;;;;;6262511;28;20044;-70
2020/12/15 06:31:34;;;;;;;88.30;55.78;;;;;;;;;;6267229;28;20459;-70
2020/12/15 06:34:35;;;;;;;83.07;52.10;;;;;;;;;;6265548;28;20045;-70
2020/12/15 06:37:36;;;;;;;75.20;51.15;;;;;;;;;;6268228;28;20056;-69
2020/12/15 06:40:42;;;;;;;75.00;53.90;;;;;;;;;;6261047;28;20492;-70
2020/12/15 06:43:43;;;;;;;74.28;53.65;;;;;;;;;;6254353;28;20051;-70
2020/12/15 06:46:52;;;;;;;73.97;52.35;;;;;;;;;;6257408;28;20052;-71
2020/12/15 06:49:54;;;;;;;75.30;52.38;;;;;;;;;;6259965;28;20061;-72
2020/12/15 06:52:55;;;;;;;73.25;51.80;;;;;;;;;;6261501;28;20045;-72
2020/12/15 06:56:01;;;;;;;75.30;51.15;;;;;;;;;;6262672;28;20159;-71
2020/12/15 06:59:03;;;;;;;78.05;50.72;;;;;;;;;;6256891;28;20051;-71
2020/12/15 07:02:09;;;;;;;78.47;52.03;;;;;;;;;;6259668;28;20040;-70
2020/12/15 07:05:18;;;;;;;85.65;58.50;;;;;;;;;;6253652;28;20562;-71
2020/12/15 07:08:19;;;;;;;81.15;56.15;;;;;;;;;;6266044;28;20071;-71
2020/12/15 07:11:25;;;;;;;80.00;54.92;;;;;;;;;;6256750;28;20049;-71
2020/12/15 07:14:26;;;;;;;80.38;55.65;;;;;;;;;;6262450;28;20051;-71
2020/12/15 07:17:27;;;;;;;80.72;54.67;;;;;;;;;;6260775;28;20170;-72
2020/12/15 07:20:28;;;;;;;80.80;54.00;;;;;;;;;;6263914;28;20044;-70
2020/12/15 07:23:29;;;;;;;74.07;51.88;;;;;;;;;;6264295;28;20048;-71
2020/12/15 07:26:31;;;;;;;78.63;54.72;;;;;;;;;;6263334;28;20063;-72
2020/12/15 07:29:32;;;;;;;73.03;49.35;;;;;;;;;;6267287;28;20487;-71
2020/12/15 07:32:36;;;;;;;73.03;49.58;;;;;;;;;;6267571;28;20065;-71
2020/12/15 07:35:37;;;;;;;67.13;46.13;;;;;;;;;;6264866;28;20492;-72
2020/12/15 07:38:39;;;;;;;64.47;45.00;;;;;;;;;;6261208;28;20098;-70
2020/12/15 07:41:41;;;;;;;63.25;44.45;;;;;;;;;;6260006;28;20183;-71
2020/12/15 07:44:43;;;;;;;55.92;41.83;;;;;;;;;;6260316;28;20148;-70
2020/12/15 07:47:44;;;;;;;57.70;41.08;;;;;;;;;;6260623;28;20171;-73
2020/12/15 07:50:45;;;;;;;59.42;41.63;;;;;;;;;;6266537;28;20551;-71
2020/12/15 07:53:50;;;;;;;63.90;41.28;;;;;;;;;;6262527;28;20144;-70
2020/12/15 07:56:53;;;;;;;55.78;39.53;;;;;;;;;;6257137;28;20091;-70
2020/12/15 07:59:55;;;;;;;56.78;40.13;;;;;;;;;;6255178;28;20055;-70
2020/12/15 08:03:01;;;;;;;59.38;38.28;;;;;;;;;;6258846;28;20131;-70
2020/12/15 08:06:07;;;;;;;56.08;40.58;;;;;;;;;;6259629;28;20515;-70
2020/12/15 08:09:10;;;;;;;53.05;38.70;;;;;;;;;;6261142;28;20139;-69
2020/12/15 08:12:12;;;;;;;55.05;38.03;;;;;;;;;;6258883;28;20128;-71
2020/12/15 08:15:13;;;;;;;47.20;33.63;;;;;;;;;;6260315;28;20643;-69
2020/12/15 08:18:17;;;;;;;47.95;34.00;;;;;;;;;;6262295;28;20045;-71
2020/12/15 08:21:19;;;;;;;43.38;33.03;;;;;;;;;;6258782;28;20047;-69
2020/12/15 08:24:22;;;;;;;44.42;31.95;;;;;;;;;;6259359;28;20049;-68
2020/12/15 08:27:25;;;;;;;45.70;32.83;;;;;;;;;;6258902;28;20078;-69
2020/12/15 08:30:26;;;;;;;41.00;31.42;;;;;;;;;;6252984;28;20215;-71
2020/12/15 08:33:28;;;;;;;47.13;32.75;;;;;;;;;;6261792;28;20053;-70
2020/12/15 08:36:29;;;;;;;41.95;31.15;;;;;;;;;;6256675;28;20336;-69
2020/12/15 08:39:30;;;;;;;41.17;30.90;;;;;;;;;;6248110;28;20067;-70
2020/12/15 08:42:33;;;;;;;48.15;33.65;;;;;;;;;;6250915;28;20048;-70
2020/12/15 08:45:34;;;;;;;56.25;36.33;;;;;;;;;;6255868;28;20154;-69
2020/12/15 08:48:35;;;;;;;46.97;33.60;;;;;;;;;;6258133;28;20046;-70
2020/12/15 08:51:40;;;;;;;45.85;33.35;;;;;;;;;;6258890;28;20098;-71
2020/12/15 08:54:42;;;;;;;45.72;33.58;;;;;;;;;;6256247;28;20064;-70
2020/12/15 08:57:43;;;;;;;51.47;34.63;;;;;;;;;;6230836;28;20117;-69
2020/12/15 09:00:46;;;;;;;46.10;33.72;;;;;;;;;;6265757;28;20051;-67
2020/12/15 09:03:47;;;;;;;46.35;33.33;;;;;;;;;;6258486;28;20137;-69
2020/12/15 09:06:48;;;;;;;48.97;32.33;;;;;;;;;;6256705;28;20072;-70
2020/12/15 09:09:49;;;;;;;53.58;33.22;;;;;;;;;;6250607;28;20412;-68
2020/12/15 09:12:51;;;;;;;41.47;29.88;;;;;;;;;;6250827;28;20049;-68
2020/12/15 09:15:54;;;;;;;53.33;33.25;;;;;;;;;;6249955;28;20433;-70
2020/12/15 09:18:55;;;;;;;47.67;32.10;;;;;;;;;;6252520;28;20143;-68
2020/12/15 09:21:58;;;;;;;39.40;30.08;;;;;;;;;;6257760;28;20057;-71
2020/12/15 09:25:01;;;;;;;38.67;26.77;;;;;;;;;;6261189;28;20472;-68
2020/12/15 09:28:03;;;;;;;37.45;25.58;;;;;;;;;;6260076;28;20468;-69
2020/12/15 09:31:04;;;;;;;28.48;21.48;;;;;;;;;;6260497;28;20048;-68
2020/12/15 09:34:06;;;;;;;31.17;21.05;;;;;;;;;;6257080;28;20552;-68
2020/12/15 09:37:07;;;;;;;30.40;20.15;;;;;;;;;;6252468;28;20053;-71
2020/12/15 09:40:09;;;;;;;30.52;20.48;;;;;;;;;;6253344;28;20064;-69
2020/12/15 09:43:11;;;;;;;31.40;20.52;;;;;;;;;;6252147;28;20151;-69
2020/12/15 09:46:12;;;;;;;25.38;18.65;;;;;;;;;;6256332;28;20484;-69
2020/12/15 09:49:13;;;;;;;26.33;19.83;;;;;;;;;;6253938;28;20618;-70
2020/12/15 09:52:14;;;;;;;30.63;20.63;;;;;;;;;;6259299;28;20094;-69
2020/12/15 09:55:15;;;;;;;34.65;21.25;;;;;;;;;;6261610;28;20171;-72
2020/12/15 09:58:17;;;;;;;30.90;22.05;;;;;;;;;;6264372;28;20124;-69
2020/12/15 10:01:18;;;;;;;32.30;22.63;;;;;;;;;;6261177;28;20049;-70
2020/12/15 10:04:19;;;;;;;31.52;23.95;;;;;;;;;;6247964;28;20588;-72
2020/12/15 10:07:20;;;;;;;34.55;26.15;;;;;;;;;;6255059;28;20055;-71
2020/12/15 10:10:21;;;;;;;39.38;28.70;;;;;;;;;;6248848;28;20114;-69
2020/12/15 10:13:23;;;;;;;41.45;27.70;;;;;;;;;;6259816;28;20529;-70
2020/12/15 10:16:24;;;;;;;38.28;27.42;;;;;;;;;;6255996;28;20055;-70
2020/12/15 10:19:25;;;;;;;39.08;27.45;;;;;;;;;;6257968;28;20112;-71
2020/12/15 10:22:26;;;;;;;40.47;28.58;;;;;;;;;;6260311;28;20057;-69
2020/12/15 10:25:27;;;;;;;36.67;27.02;;;;;;;;;;6258073;28;20489;-68
2020/12/15 10:28:29;;;;;;;36.92;27.17;;;;;;;;;;6271147;28;20084;-70
2020/12/15 10:31:30;;;;;;;33.35;25.45;;;;;;;;;;6256838;28;20559;-69
2020/12/15 10:34:31;;;;;;;40.78;29.23;;;;;;;;;;6261514;28;20489;-72
2020/12/15 10:37:32;;;;;;;40.97;27.95;;;;;;;;;;6254579;28;20715;-70
2020/12/15 10:40:33;;;;;;;33.15;27.00;;;;;;;;;;6257331;28;20495;-69
2020/12/15 10:43:36;;;;;;;37.08;28.15;;;;;;;;;;6260597;28;20053;-70
2020/12/15 10:46:37;;;;;;;38.47;27.63;;;;;;;;;;6265296;28;20053;-70
2020/12/15 10:49:38;;;;;;;34.30;27.00;;;;;;;;;;6266435;28;20056;-69
2020/12/15 10:52:39;;;;;;;36.35;28.48;;;;;;;;;;6260755;28;20041;-70
2020/12/15 10:55:41;;;;;;;44.30;28.10;;;;;;;;;;6260662;28;20045;-71
2020/12/15 10:58:42;;;;;;;35.53;25.95;;;;;;;;;;6266939;28;20059;-70
2020/12/15 11:01:43;;;;;;;34.38;26.50;;;;;;;;;;6268678;28;20128;-70
2020/12/15 11:04:45;;;;;;;34.50;25.48;;;;;;;;;;6263020;28;20131;-69
2020/12/15 11:07:46;;;;;;;41.17;24.50;;;;;;;;;;6259743;28;20056;-69
2020/12/15 11:10:48;;;;;;;34.78;24.55;;;;;;;;;;6256949;28;20102;-69
2020/12/15 11:13:50;;;;;;;34.67;24.77;;;;;;;;;;6261390;28;20044;-70
2020/12/15 11:16:51;;;;;;;30.92;23.15;;;;;;;;;;6259513;28;20137;-72
2020/12/15 11:19:52;;;;;;;28.33;20.98;;;;;;;;;;6257572;28;20065;-69
2020/12/15 11:22:53;;;;;;;22.52;19.40;;;;;;;;;;6273849;28;20108;-69
2020/12/15 11:25:54;;;;;;;21.52;16.20;;;;;;;;;;6269663;28;20716;-69
2020/12/15 11:28:56;;;;;;;22.35;17.17;;;;;;;;;;6260380;28;20120;-71
2020/12/15 11:31:57;;;;;;;22.88;16.92;;;;;;;;;;6253796;28;20144;-70
2020/12/15 11:34:58;;;;;;;20.58;16.02;;;;;;;;;;6255610;28;20123;-70
2020/12/15 11:38:00;;;;;;;19.70;15.95;;;;;;;;;;6256380;28;20084;-69
2020/12/15 11:41:01;;;;;;;21.15;15.00;;;;;;;;;;6268692;28;20119;-70
2020/12/15 11:44:03;;;;;;;19.58;15.68;;;;;;;;;;6264497;28;21018;-69
2020/12/15 11:47:04;;;;;;;19.65;16.48;;;;;;;;;;6261213;28;20061;-70
2020/12/15 11:50:05;;;;;;;18.80;15.13;;;;;;;;;;6262345;28;20134;-70
2020/12/15 11:53:06;;;;;;;23.90;16.00;;;;;;;;;;6259582;28;20096;-69
2020/12/15 11:56:07;;;;;;;21.65;15.90;;;;;;;;;;6258207;28;20074;-70
2020/12/15 11:59:09;;;;;;;19.45;16.08;;;;;;;;;;6264712;28;20041;-71
2020/12/15 12:02:12;;;;;;;19.98;16.00;;;;;;;;;;6260650;28;20045;-70
2020/12/15 12:05:16;;;;;;;22.75;15.90;;;;;;;;;;6257134;28;20131;-70
2020/12/15 12:08:17;;;;;;;25.75;15.20;;;;;;;;;;6263439;28;20040;-70
2020/12/15 12:11:18;;;;;;;21.52;16.27;;;;;;;;;;6257081;28;20040;-68
2020/12/15 12:14:20;;;;;;;25.33;16.38;;;;;;;;;;6259597;28;20137;-69
2020/12/15 12:17:22;;;;;;;19.98;15.02;;;;;;;;;;6260982;28;20040;-70
2020/12/15 12:20:23;;;;;;;18.55;15.43;;;;;;;;;;6257194;28;20049;-70
2020/12/15 12:23:24;;;;;;;22.75;15.90;;;;;;;;;;6260636;28;20057;-69
2020/12/15 12:26:26;;;;;;;20.38;15.07;;;;;;;;;;6260626;28;20041;-70
2020/12/15 12:29:28;;;;;;;21.02;15.52;;;;;;;;;;6259331;28;20059;-72
2020/12/15 12:32:29;;;;;;;25.40;16.40;;;;;;;;;;6260248;28;20133;-71
2020/12/15 12:35:30;;;;;;;24.10;16.42;;;;;;;;;;6257438;28;20510;-71
2020/12/15 12:38:31;;;;;;;23.77;15.43;;;;;;;;;;6254234;28;20102;-71
2020/12/15 12:41:32;;;;;;;22.55;15.80;;;;;;;;;;6265997;28;20135;-69
2020/12/15 12:44:34;;;;;;;20.83;14.50;;;;;;;;;;6266370;28;20132;-70
2020/12/15 12:47:35;;;;;;;30.20;13.98;;;;;;;;;;6259767;28;20048;-69
2020/12/15 12:50:36;;;;;;;17.73;13.13;;;;;;;;;;6266525;28;20139;-70
2020/12/15 12:53:41;;;;;;;16.10;12.50;;;;;;;;;;6253714;28;20049;-73
2020/12/15 12:56:42;;;;;;;18.58;13.25;;;;;;;;;;6257718;28;20136;-71
2020/12/15 12:59:44;;;;;;;16.80;12.75;;;;;;;;;;6258404;28;20096;-70
2020/12/15 13:02:45;;;;;;;23.50;13.00;;;;;;;;;;6233488;28;20052;-74
2020/12/15 13:05:47;;;;;;;16.63;11.95;;;;;;;;;;6254745;28;20049;-71
2020/12/15 13:08:48;;;;;;;17.02;11.75;;;;;;;;;;6263113;28;20044;-72
2020/12/15 13:11:51;;;;;;;16.58;11.23;;;;;;;;;;6280365;28;20123;-69
2020/12/15 13:14:53;;;;;;;15.75;11.50;;;;;;;;;;6281525;28;20087;-69
2020/12/15 13:17:54;;;;;;;16.15;12.02;;;;;;;;;;6263752;28;20045;-71
2020/12/15 13:20:55;;;;;;;14.55;11.40;;;;;;;;;;6259213;28;20045;-71
2020/12/15 13:23:56;;;;;;;15.38;11.48;;;;;;;;;;6266888;28;20052;-71
2020/12/15 13:26:57;;;;;;;15.93;11.30;;;;;;;;;;6275829;28;20049;-71
2020/12/15 13:29:59;;;;;;;16.45;11.48;;;;;;;;;;6286669;28;20077;-70
2020/12/15 13:33:00;;;;;;;20.48;13.55;;;;;;;;;;6280364;28;20451;-71
2020/12/15 13:36:01;;;;;;;20.63;13.85;;;;;;;;;;6290094;28;20375;-70
2020/12/15 13:39:03;;;;;;;18.67;13.85;;;;;;;;;;6247831;28;20145;-70
2020/12/15 13:42:04;;;;;;;17.08;13.57;;;;;;;;;;6261875;28;20088;-71
2020/12/15 13:45:06;;;;;;;17.83;14.25;;;;;;;;;;6270892;28;20063;-69
2020/12/15 13:48:07;;;;;;;22.92;15.07;;;;;;;;;;6285014;28;20055;-73
2020/12/15 13:51:08;;;;;;;29.17;16.67;;;;;;;;;;6283910;28;20059;-71
2020/12/15 13:54:09;;;;;;;24.48;18.35;;;;;;;;;;6283928;28;20048;-74
2020/12/15 13:57:10;;;;;;;21.17;16.42;;;;;;;;;;6285345;28;20045;-70
2020/12/15 14:00:12;;;;;;;29.25;18.45;;;;;;;;;;6278786;28;20500;-70
2020/12/15 14:03:13;;;;;;;25.05;18.35;;;;;;;;;;6266682;28;20059;-70
2020/12/15 14:06:18;;;;;;;28.13;19.25;;;;;;;;;;6255591;28;20051;-71
2020/12/15 14:09:19;;;;;;;27.15;19.35;;;;;;;;;;6263462;28;20579;-72
2020/12/15 14:12:20;;;;;;;25.13;16.10;;;;;;;;;;6263380;28;20044;-73
2020/12/15 14:15:22;;;;;;;21.33;16.35;;;;;;;;;;6285099;28;20063;-72
2020/12/15 14:18:23;;;;;;;20.20;15.63;;;;;;;;;;6265451;28;20052;-69
2020/12/15 14:21:24;;;;;;;18.65;14.48;;;;;;;;;;6284092;28;20547;-70
2020/12/15 14:24:25;;;;;;;17.30;13.95;;;;;;;;;;6280532;28;20442;-73
2020/12/15 14:27:26;;;;;;;20.98;15.38;;;;;;;;;;6281076;28;20060;-71
2020/12/15 14:30:28;;;;;;;21.40;15.35;;;;;;;;;;6282439;28;20063;-69
2020/12/15 14:33:29;;;;;;;22.02;14.38;;;;;;;;;;6287267;28;20101;-69
2020/12/15 14:36:30;;;;;;;20.65;16.05;;;;;;;;;;6275304;28;20059;-72
2020/12/15 14:39:31;;;;;;;19.85;14.98;;;;;;;;;;6286643;28;20122;-70
2020/12/15 14:42:32;;;;;;;19.92;15.27;;;;;;;;;;6272622;28;20418;-69
2020/12/15 14:45:34;;;;;;;23.13;17.02;;;;;;;;;;6276802;28;20544;-69
2020/12/15 14:48:35;;;;;;;20.10;15.95;;;;;;;;;;6281366;28;20071;-69
2020/12/15 14:51:36;;;;;;;21.92;15.63;;;;;;;;;;6282871;28;20584;-68
2020/12/15 14:54:37;;;;;;;25.67;16.88;;;;;;;;;;6280623;28;20678;-70
2020/12/15 14:57:38;;;;;;;20.33;16.65;;;;;;;;;;6280545;28;20123;-69
2020/12/15 15:00:40;;;;;;;21.60;16.63;;;;;;;;;;6272257;28;20502;-70
2020/12/15 15:03:41;;;;;;;20.25;16.27;;;;;;;;;;6278061;28;20174;-70
2020/12/15 15:06:43;;;;;;;27.25;16.80;;;;;;;;;;6266210;28;20148;-71
2020/12/15 15:09:44;;;;;;;19.23;14.57;;;;;;;;;;6258623;28;20417;-71
2020/12/15 15:12:45;;;;;;;24.38;15.30;;;;;;;;;;6264252;28;20045;-70
2020/12/15 15:15:47;;;;;;;18.27;14.55;;;;;;;;;;6257959;28;20144;-71
2020/12/15 15:18:48;;;;;;;21.15;14.30;;;;;;;;;;6256412;28;20213;-70
2020/12/15 15:21:49;;;;;;;19.08;14.80;;;;;;;;;;6252203;28;20045;-70
2020/12/15 15:24:50;;;;;;;19.58;14.48;;;;;;;;;;6255619;28;20049;-71
2020/12/15 15:27:51;;;;;;;20.08;15.25;;;;;;;;;;6255170;28;20818;-72
2020/12/15 15:30:54;;;;;;;19.95;14.30;;;;;;;;;;6258987;28;20060;-70
2020/12/15 15:33:55;;;;;;;20.00;14.70;;;;;;;;;;6258171;28;20048;-70
2020/12/15 15:36:56;;;;;;;22.77;15.82;;;;;;;;;;6253834;28;20068;-70
2020/12/15 15:39:58;;;;;;;19.75;14.95;;;;;;;;;;6254667;28;20044;-70
2020/12/15 15:42:59;;;;;;;21.35;15.35;;;;;;;;;;6254897;28;20048;-69
2020/12/15 15:46:01;;;;;;;21.77;15.82;;;;;;;;;;6254222;28;20065;-69
2020/12/15 15:49:02;;;;;;;20.02;15.32;;;;;;;;;;6256247;28;20065;-70
2020/12/15 15:52:03;;;;;;;19.75;15.15;;;;;;;;;;6257669;28;20140;-70
2020/12/15 15:55:05;;;;;;;19.70;14.88;;;;;;;;;;6257120;28;20057;-68
2020/12/15 15:58:06;;;;;;;28.13;15.48;;;;;;;;;;6259115;28;20053;-68
2020/12/15 16:01:08;;;;;;;20.85;16.05;;;;;;;;;;6280717;28;20431;-67
2020/12/15 16:04:09;;;;;;;20.85;15.73;;;;;;;;;;6261519;28;20052;-68
2020/12/15 16:07:11;;;;;;;22.00;16.55;;;;;;;;;;6242079;28;20148;-69
2020/12/15 16:10:12;;;;;;;20.27;15.23;;;;;;;;;;6258574;28;20045;-69
2020/12/15 16:13:13;;;;;;;22.70;16.48;;;;;;;;;;6250218;28;20136;-68
2020/12/15 16:16:15;;;;;;;21.27;15.82;;;;;;;;;;6251823;28;20049;-69
2020/12/15 16:19:16;;;;;;;24.35;15.73;;;;;;;;;;6260149;28;20128;-70
2020/12/15 16:22:19;;;;;;;23.38;16.50;;;;;;;;;;6258991;28;20075;-68
2020/12/15 16:25:20;;;;;;;20.85;15.82;;;;;;;;;;6257859;28;20051;-69
2020/12/15 16:28:21;;;;;;;29.02;17.08;;;;;;;;;;6259350;28;20226;-68
2020/12/15 16:31:23;;;;;;;24.30;17.80;;;;;;;;;;6257157;28;20047;-70
2020/12/15 16:34:24;;;;;;;26.73;18.65;;;;;;;;;;6257659;28;20049;-69
2020/12/15 16:37:26;;;;;;;22.45;17.92;;;;;;;;;;6250924;28;20155;-69
2020/12/15 16:40:27;;;;;;;25.00;18.48;;;;;;;;;;6248089;28;20132;-69
2020/12/15 16:43:28;;;;;;;24.98;19.08;;;;;;;;;;6248026;28;20164;-70
2020/12/15 16:46:30;;;;;;;26.35;20.10;;;;;;;;;;6257093;28;20051;-68
2020/12/15 16:49:32;;;;;;;28.85;18.73;;;;;;;;;;6253486;28;20085;-69
2020/12/15 16:52:34;;;;;;;26.17;19.05;;;;;;;;;;6250649;28;20052;-69
2020/12/15 16:55:36;;;;;;;29.23;19.67;;;;;;;;;;6256228;28;20060;-69
2020/12/15 16:58:37;;;;;;;29.17;18.50;;;;;;;;;;6253424;28;20056;-69
2020/12/15 17:01:39;;;;;;;24.30;18.98;;;;;;;;;;6248843;28;20106;-69
2020/12/15 17:04:40;;;;;;;27.02;18.50;;;;;;;;;;6260015;28;20592;-70
2020/12/15 17:07:42;;;;;;;25.42;17.33;;;;;;;;;;6277593;28;20052;-71
2020/12/15 17:10:43;;;;;;;23.83;17.50;;;;;;;;;;6276348;28;20686;-69
2020/12/15 17:13:44;;;;;;;22.08;17.25;;;;;;;;;;6274902;28;20051;-69
2020/12/15 17:16:51;;;;;;;23.55;17.00;;;;;;;;;;6267816;28;20044;-68
2020/12/15 17:19:52;;;;;;;22.52;17.60;;;;;;;;;;6275848;28;20658;-68
2020/12/15 17:22:57;;;;;;;24.15;18.10;;;;;;;;;;6280718;28;20036;-69
2020/12/15 17:25:58;;;;;;;23.38;17.75;;;;;;;;;;6280871;28;20123;-68
2020/12/15 17:28:59;;;;;;;23.60;16.95;;;;;;;;;;6276777;28;20044;-70
2020/12/15 17:32:01;;;;;;;23.25;16.95;;;;;;;;;;6274509;28;20521;-70
2020/12/15 17:35:03;;;;;;;21.75;16.85;;;;;;;;;;6253851;28;20102;-69